Time;durP1;ratioP1;P1;durP2;ratioP2;P2;SDS_P1;SDS_P2;PMS_P1;PMS_P2;Temp;Humidity;BMP_temperature;BMP_pressure;BME280_temperature;BME280_humidity;BME280_pressure;Samples;Min_cycle;Max_cycle;Signal;HPM_P1;HPM_P2
2023/11/02 00:01:26;;;;;;;8.23;6.43;;;;;;;;;;10024920;28;20056;-68
2023/11/02 00:06:34;;;;;;;16.98;11.07;;;;;;;;;;10023105;28;20137;-69
2023/11/02 00:11:44;;;;;;;13.27;6.72;;;;;;;;;;10015891;28;20531;-68
2023/11/02 00:16:36;;;;;;;7.85;4.15;;;;;;;;;;10022951;28;20369;-68
2023/11/02 00:21:28;;;;;;;8.63;5.60;;;;;;;;;;10023829;28;20046;-68
2023/11/02 00:26:20;;;;;;;11.68;6.20;;;;;;;;;;10023644;28;20536;-67
2023/11/02 00:31:15;;;;;;;9.23;4.57;;;;;;;;;;10023620;28;20041;-71
2023/11/02 00:36:08;;;;;;;15.30;5.95;;;;;;;;;;10022165;28;20061;-71
2023/11/02 00:41:00;;;;;;;9.93;5.85;;;;;;;;;;10021638;28;20042;-71
2023/11/02 00:45:52;;;;;;;13.77;12.35;;;;;;;;;;10022485;28;20073;-71
2023/11/02 00:51:14;;;;;;;28.83;25.88;;;;;;;;;;10022670;28;20030;-70
2023/11/02 00:56:07;;;;;;;24.13;21.52;;;;;;;;;;10022240;28;20081;-68
2023/11/02 01:01:07;;;;;;;10.30;8.40;;;;;;;;;;10022348;28;20037;-68
2023/11/02 01:06:00;;;;;;;14.32;8.02;;;;;;;;;;10022304;28;20044;-70
2023/11/02 01:10:52;;;;;;;16.63;13.43;;;;;;;;;;10021805;28;20038;-70
2023/11/02 01:15:44;;;;;;;11.40;9.10;;;;;;;;;;10022830;28;20061;-71
2023/11/02 01:20:39;;;;;;;32.72;27.02;;;;;;;;;;10019817;28;20049;-71
2023/11/02 01:25:31;;;;;;;17.30;10.15;;;;;;;;;;10024216;28;20136;-69
2023/11/02 01:30:23;;;;;;;11.65;9.75;;;;;;;;;;10028282;28;20053;-67
2023/11/02 01:35:44;;;;;;;13.98;9.43;;;;;;;;;;10030353;28;20057;-69
2023/11/02 01:40:45;;;;;;;11.50;9.23;;;;;;;;;;10023165;28;20124;-70
2023/11/02 01:45:41;;;;;;;13.85;9.82;;;;;;;;;;10029048;28;20388;-69
2023/11/02 01:50:39;;;;;;;10.65;5.95;;;;;;;;;;10029410;28;20056;-69
2023/11/02 01:55:45;;;;;;;11.98;7.85;;;;;;;;;;10027744;28;20108;-69
2023/11/02 02:00:57;;;;;;;10.20;7.10;;;;;;;;;;10024991;28;20046;-68
2023/11/02 02:05:52;;;;;;;9.73;4.90;;;;;;;;;;10030774;28;20049;-68
2023/11/02 02:10:47;;;;;;;9.45;5.53;;;;;;;;;;10010869;28;20512;-71
2023/11/02 02:16:05;;;;;;;9.40;7.13;;;;;;;;;;10028549;28;20113;-72
2023/11/02 02:21:01;;;;;;;7.25;6.55;;;;;;;;;;10026827;28;20046;-71
2023/11/02 02:26:18;;;;;;;8.43;7.45;;;;;;;;;;10006324;28;20112;-71
2023/11/02 02:31:30;;;;;;;9.73;6.82;;;;;;;;;;10027459;28;20046;-71
2023/11/02 02:36:39;;;;;;;10.57;6.57;;;;;;;;;;10027699;28;20057;-71
2023/11/02 02:41:39;;;;;;;9.27;6.57;;;;;;;;;;10025078;28;20045;-71
2023/11/02 02:46:31;;;;;;;9.77;7.47;;;;;;;;;;10027128;28;20125;-71
2023/11/02 02:51:24;;;;;;;11.90;8.32;;;;;;;;;;10025656;28;20502;-68
2023/11/02 02:56:23;;;;;;;16.75;13.85;;;;;;;;;;10009849;28;20054;-68
2023/11/02 03:01:17;;;;;;;26.00;16.23;;;;;;;;;;10024551;28;20041;-72
2023/11/02 03:06:10;;;;;;;19.38;15.43;;;;;;;;;;10024815;28;20060;-70
2023/11/02 03:11:03;;;;;;;20.67;13.55;;;;;;;;;;10025727;28;20117;-71
2023/11/02 03:16:08;;;;;;;21.00;12.07;;;;;;;;;;10024123;28;20049;-71
2023/11/02 03:21:00;;;;;;;16.90;11.27;;;;;;;;;;10008588;28;20054;-70
2023/11/02 03:26:17;;;;;;;13.75;10.77;;;;;;;;;;10024280;28;20361;-70
2023/11/02 03:31:18;;;;;;;14.40;12.30;;;;;;;;;;10024139;28;20048;-70
2023/11/02 03:36:19;;;;;;;16.58;12.70;;;;;;;;;;10026525;28;20065;-71
2023/11/02 03:41:46;;;;;;;14.25;12.45;;;;;;;;;;10024470;28;20058;-68
2023/11/02 03:46:57;;;;;;;14.68;13.00;;;;;;;;;;10024753;28;20149;-68
2023/11/02 03:52:01;;;;;;;24.35;18.85;;;;;;;;;;10022685;28;20128;-68
2023/11/02 03:57:02;;;;;;;29.05;21.67;;;;;;;;;;10026174;28;20169;-68
2023/11/02 04:02:05;;;;;;;45.72;27.02;;;;;;;;;;10022863;28;20049;-70
2023/11/02 04:07:02;;;;;;;33.45;25.88;;;;;;;;;;10021266;28;20136;-71
2023/11/02 04:11:59;;;;;;;39.88;26.00;;;;;;;;;;10015668;28;20353;-71
2023/11/02 04:16:51;;;;;;;35.17;27.50;;;;;;;;;;10023584;28;20038;-71
2023/11/02 04:21:44;;;;;;;33.05;26.17;;;;;;;;;;10021438;28;20037;-71
2023/11/02 04:26:37;;;;;;;32.97;25.70;;;;;;;;;;10018745;28;20052;-71
2023/11/02 04:31:30;;;;;;;24.90;22.02;;;;;;;;;;10014640;28;20038;-71
2023/11/02 04:36:25;;;;;;;26.48;23.58;;;;;;;;;;10022371;28;20077;-70
2023/11/02 04:41:19;;;;;;;25.25;22.48;;;;;;;;;;10014909;28;20108;-71
2023/11/02 04:46:11;;;;;;;29.52;22.88;;;;;;;;;;10019160;28;20050;-71
2023/11/02 04:51:03;;;;;;;27.17;23.38;;;;;;;;;;10022516;28;20046;-71
2023/11/02 04:55:55;;;;;;;29.25;23.30;;;;;;;;;;10023405;28;20033;-69
2023/11/02 05:00:47;;;;;;;27.55;22.80;;;;;;;;;;10028250;28;20096;-68
2023/11/02 05:05:39;;;;;;;28.77;24.27;;;;;;;;;;10030848;28;20138;-68
2023/11/02 05:10:31;;;;;;;30.70;25.85;;;;;;;;;;10030548;28;20042;-68
2023/11/02 05:15:23;;;;;;;40.47;31.10;;;;;;;;;;10030038;28;20447;-69
2023/11/02 05:20:15;;;;;;;38.42;30.85;;;;;;;;;;10028743;28;20057;-68
2023/11/02 05:25:07;;;;;;;36.78;30.92;;;;;;;;;;10028951;28;20096;-68
2023/11/02 05:29:59;;;;;;;32.65;28.02;;;;;;;;;;10030266;28;20069;-69
2023/11/02 05:34:51;;;;;;;32.08;27.13;;;;;;;;;;10029890;28;20346;-70
2023/11/02 05:39:43;;;;;;;33.25;29.70;;;;;;;;;;10028240;28;20061;-69
2023/11/02 05:44:35;;;;;;;30.52;26.92;;;;;;;;;;10030874;28;20468;-69
2023/11/02 05:49:27;;;;;;;34.83;27.00;;;;;;;;;;10028263;28;20085;-69
2023/11/02 05:54:19;;;;;;;29.55;26.35;;;;;;;;;;10029275;28;20420;-70
2023/11/02 05:59:11;;;;;;;28.55;25.65;;;;;;;;;;10030038;28;20472;-70
2023/11/02 06:04:03;;;;;;;29.08;23.27;;;;;;;;;;10027889;28;20196;-69
2023/11/02 06:08:55;;;;;;;28.00;25.00;;;;;;;;;;10012541;28;20134;-67
2023/11/02 06:13:46;;;;;;;26.02;22.77;;;;;;;;;;10017814;28;20448;-68
2023/11/02 06:18:38;;;;;;;28.50;25.10;;;;;;;;;;10031833;28;20045;-70
2023/11/02 06:23:30;;;;;;;28.98;24.95;;;;;;;;;;10032217;28;20464;-68
2023/11/02 06:28:22;;;;;;;26.15;23.35;;;;;;;;;;10029464;28;20136;-69
2023/11/02 06:33:23;;;;;;;29.98;26.00;;;;;;;;;;10023333;28;20400;-69
2023/11/02 06:38:17;;;;;;;30.98;25.92;;;;;;;;;;10022641;28;20100;-70
2023/11/02 06:43:10;;;;;;;29.48;23.88;;;;;;;;;;10022307;28;20461;-70
2023/11/02 06:48:02;;;;;;;32.70;26.70;;;;;;;;;;10024656;28;20050;-68
2023/11/02 06:52:55;;;;;;;31.50;26.25;;;;;;;;;;10024932;28;20096;-69
2023/11/02 06:57:47;;;;;;;36.10;27.98;;;;;;;;;;10025726;28;20046;-70
2023/11/02 07:02:38;;;;;;;33.35;25.98;;;;;;;;;;10023239;28;20061;-70
2023/11/02 07:07:30;;;;;;;32.53;27.70;;;;;;;;;;10023094;28;20080;-69
2023/11/02 07:12:22;;;;;;;35.47;27.00;;;;;;;;;;10022914;28;20076;-70
2023/11/02 07:17:16;;;;;;;32.72;26.92;;;;;;;;;;10015771;28;20373;-70
2023/11/02 07:22:07;;;;;;;32.55;26.98;;;;;;;;;;10023471;28;20054;-70
2023/11/02 07:26:59;;;;;;;36.08;28.83;;;;;;;;;;10023252;28;20083;-70
2023/11/02 07:31:51;;;;;;;40.90;32.72;;;;;;;;;;10023563;28;20128;-70
2023/11/02 07:36:43;;;;;;;39.78;31.90;;;;;;;;;;10024197;28;20042;-69
2023/11/02 07:41:35;;;;;;;38.92;31.58;;;;;;;;;;10023151;28;20065;-70
2023/11/02 07:46:26;;;;;;;40.22;32.05;;;;;;;;;;10021687;28;20054;-69
2023/11/02 07:51:19;;;;;;;41.72;34.20;;;;;;;;;;10022999;28;20045;-70
2023/11/02 07:56:11;;;;;;;48.78;38.97;;;;;;;;;;10022291;28;20553;-70
2023/11/02 08:01:05;;;;;;;56.05;41.40;;;;;;;;;;10023368;28;20084;-69
2023/11/02 08:05:57;;;;;;;51.60;36.45;;;;;;;;;;10022928;28;20041;-70
2023/11/02 08:10:49;;;;;;;56.78;42.90;;;;;;;;;;10023577;28;20322;-70
2023/11/02 08:15:41;;;;;;;75.93;51.70;;;;;;;;;;10022263;28;20480;-70
2023/11/02 08:20:34;;;;;;;64.10;45.72;;;;;;;;;;10023114;28;20038;-70
2023/11/02 08:25:25;;;;;;;67.65;49.60;;;;;;;;;;10021832;28;20468;-69
2023/11/02 08:30:17;;;;;;;91.88;59.65;;;;;;;;;;10011155;28;20034;-70
2023/11/02 08:35:09;;;;;;;93.72;61.00;;;;;;;;;;10011206;28;20052;-69
2023/11/02 08:40:01;;;;;;;95.53;65.55;;;;;;;;;;10009214;28;20084;-69
2023/11/02 08:44:53;;;;;;;107.88;66.70;;;;;;;;;;10020396;28;20050;-70
2023/11/02 08:49:46;;;;;;;116.60;68.25;;;;;;;;;;10024841;28;20081;-69
2023/11/02 08:54:38;;;;;;;97.07;61.83;;;;;;;;;;10025345;28;20436;-70
2023/11/02 08:59:30;;;;;;;113.43;63.95;;;;;;;;;;10025472;28;20054;-69
2023/11/02 09:04:22;;;;;;;123.90;70.30;;;;;;;;;;10024098;28;20121;-69
2023/11/02 09:09:14;;;;;;;111.57;68.07;;;;;;;;;;10024934;28;20060;-70
2023/11/02 09:14:06;;;;;;;115.80;65.78;;;;;;;;;;10024058;28;20461;-70
2023/11/02 09:18:59;;;;;;;134.95;77.93;;;;;;;;;;10025116;28;20102;-70
2023/11/02 09:23:52;;;;;;;139.25;79.25;;;;;;;;;;10024257;28;20049;-70
2023/11/02 09:28:43;;;;;;;155.63;82.90;;;;;;;;;;10024872;28;20088;-70
2023/11/02 09:33:35;;;;;;;174.20;82.82;;;;;;;;;;10024276;28;20045;-70
2023/11/02 09:38:27;;;;;;;188.93;88.68;;;;;;;;;;10021534;28;20038;-69
2023/11/02 09:43:20;;;;;;;184.65;86.95;;;;;;;;;;10020360;28;20128;-70
2023/11/02 09:48:12;;;;;;;176.77;81.05;;;;;;;;;;10025264;28;20381;-71
2023/11/02 09:53:06;;;;;;;184.57;91.47;;;;;;;;;;10028369;28;20034;-69
2023/11/02 09:57:59;;;;;;;173.52;87.43;;;;;;;;;;10027295;28;20050;-70
2023/11/02 10:02:52;;;;;;;180.68;84.90;;;;;;;;;;10026840;28;20049;-71
2023/11/02 10:07:47;;;;;;;160.07;79.03;;;;;;;;;;10028849;28;20074;-71
2023/11/02 10:12:40;;;;;;;158.63;80.95;;;;;;;;;;10026530;28;20046;-72
2023/11/02 10:17:36;;;;;;;143.98;83.93;;;;;;;;;;10027147;28;20050;-69
2023/11/02 10:22:28;;;;;;;129.90;72.55;;;;;;;;;;10025354;28;20539;-69
2023/11/02 10:27:21;;;;;;;109.68;62.08;;;;;;;;;;10026107;28;20057;-70
2023/11/02 10:32:12;;;;;;;91.72;55.92;;;;;;;;;;10025920;28;20485;-71
2023/11/02 10:37:07;;;;;;;99.63;63.63;;;;;;;;;;10027658;28;20054;-70
2023/11/02 10:42:00;;;;;;;97.22;59.83;;;;;;;;;;10025784;28;20425;-70
2023/11/02 10:46:57;;;;;;;100.10;64.90;;;;;;;;;;10025238;28;20137;-71
2023/11/02 10:51:50;;;;;;;64.90;44.65;;;;;;;;;;10025916;28;20412;-70
2023/11/02 10:56:43;;;;;;;65.80;44.65;;;;;;;;;;10023872;28;20077;-70
2023/11/02 11:01:36;;;;;;;64.65;46.63;;;;;;;;;;10025215;28;20056;-70
2023/11/02 11:06:28;;;;;;;59.08;44.13;;;;;;;;;;10026353;28;20045;-69
2023/11/02 11:11:20;;;;;;;70.30;47.10;;;;;;;;;;10025367;28;20050;-71
2023/11/02 11:16:14;;;;;;;66.60;45.88;;;;;;;;;;10023004;28;20096;-70
2023/11/02 11:21:06;;;;;;;66.72;44.03;;;;;;;;;;10024886;28;20132;-70
2023/11/02 11:26:01;;;;;;;58.45;40.42;;;;;;;;;;10025571;28;20069;-69
2023/11/02 11:30:53;;;;;;;51.13;38.65;;;;;;;;;;10024377;28;20045;-70
2023/11/02 11:36:21;;;;;;;52.03;34.80;;;;;;;;;;10021551;28;20046;-69
2023/11/02 11:41:44;;;;;;;51.67;35.40;;;;;;;;;;10022893;28;20054;-68
2023/11/02 11:46:44;;;;;;;49.47;36.63;;;;;;;;;;10024004;28;20388;-71
2023/11/02 11:51:40;;;;;;;44.20;33.40;;;;;;;;;;10023960;28;20469;-70
2023/11/02 11:56:32;;;;;;;42.80;31.88;;;;;;;;;;10014435;28;20045;-70
2023/11/02 12:01:24;;;;;;;44.88;32.60;;;;;;;;;;10023195;28;20106;-70
2023/11/02 12:06:46;;;;;;;38.53;30.83;;;;;;;;;;10022627;28;20057;-71
2023/11/02 12:11:39;;;;;;;39.97;32.33;;;;;;;;;;10020723;28;20050;-71
2023/11/02 12:16:33;;;;;;;44.50;33.05;;;;;;;;;;10024638;28;20050;-70
2023/11/02 12:21:26;;;;;;;44.45;32.92;;;;;;;;;;10020969;28;20050;-69
2023/11/02 12:26:19;;;;;;;48.65;35.15;;;;;;;;;;10022143;28;20084;-72
2023/11/02 12:31:13;;;;;;;43.47;30.27;;;;;;;;;;10021926;28;20041;-71
2023/11/02 12:36:06;;;;;;;46.78;32.65;;;;;;;;;;10022490;28;20057;-71
2023/11/02 12:40:59;;;;;;;47.22;32.75;;;;;;;;;;10019053;28;20065;-70
2023/11/02 12:45:55;;;;;;;44.10;30.88;;;;;;;;;;10023991;28;20046;-71
2023/11/02 12:50:48;;;;;;;45.63;31.58;;;;;;;;;;10018482;28;20100;-71
2023/11/02 12:55:47;;;;;;;38.33;28.42;;;;;;;;;;10022317;28;20068;-72
2023/11/02 13:00:39;;;;;;;;;;;;;;;;;;10014299;28;20071;-71
2023/11/02 13:05:35;;;;;;;35.08;25.23;;;;;;;;;;10021670;28;19927;-70
2023/11/02 13:10:29;;;;;;;31.30;23.20;;;;;;;;;;10020315;28;20038;-70
2023/11/02 13:15:21;;;;;;;26.38;22.20;;;;;;;;;;10017810;28;20120;-71
2023/11/02 13:20:15;;;;;;;31.38;20.27;;;;;;;;;;10015023;28;20117;-72
2023/11/02 13:25:07;;;;;;;24.80;20.30;;;;;;;;;;10028237;28;20046;-72
2023/11/02 13:30:00;;;;;;;28.05;20.42;;;;;;;;;;10026966;28;20045;-72
2023/11/02 13:34:52;;;;;;;22.33;18.05;;;;;;;;;;10027712;28;20058;-72
2023/11/02 13:39:45;;;;;;;27.02;22.88;;;;;;;;;;10026832;28;20058;-71
2023/11/02 13:44:39;;;;;;;27.77;21.00;;;;;;;;;;10028383;28;20496;-71
2023/11/02 13:49:32;;;;;;;31.67;20.83;;;;;;;;;;10027969;28;20038;-71
2023/11/02 13:54:24;;;;;;;30.98;23.27;;;;;;;;;;10028137;28;20042;-72
2023/11/02 13:59:16;;;;;;;28.92;22.05;;;;;;;;;;10025880;28;20049;-72
2023/11/02 14:04:08;;;;;;;24.75;20.50;;;;;;;;;;10029475;28;20130;-72
2023/11/02 14:09:02;;;;;;;25.55;20.10;;;;;;;;;;10026537;28;21993;-71
2023/11/02 14:13:55;;;;;;;31.70;24.95;;;;;;;;;;10029117;28;20073;-72
2023/11/02 14:18:48;;;;;;;24.17;19.33;;;;;;;;;;10027348;28;20050;-72
2023/11/02 14:23:40;;;;;;;25.00;20.10;;;;;;;;;;10026412;28;20077;-71
2023/11/02 14:28:33;;;;;;;26.45;19.17;;;;;;;;;;10026228;28;20573;-70
2023/11/02 14:33:25;;;;;;;29.20;21.00;;;;;;;;;;10025741;28;20160;-70
2023/11/02 14:38:19;;;;;;;31.13;21.02;;;;;;;;;;10027109;28;20069;-70
2023/11/02 14:43:11;;;;;;;29.42;21.60;;;;;;;;;;10025937;28;20107;-69
2023/11/02 14:48:05;;;;;;;26.00;17.60;;;;;;;;;;10016774;28;20041;-70
2023/11/02 14:52:57;;;;;;;23.95;19.98;;;;;;;;;;10025415;28;20046;-68
2023/11/02 14:57:50;;;;;;;31.65;21.17;;;;;;;;;;10025475;28;20439;-69
2023/11/02 15:02:42;;;;;;;24.83;18.80;;;;;;;;;;10025440;28;20042;-70
2023/11/02 15:07:34;;;;;;;21.40;18.05;;;;;;;;;;10025652;28;20128;-70
2023/11/02 15:12:25;;;;;;;25.40;17.75;;;;;;;;;;10025250;28;20042;-70
2023/11/02 15:17:17;;;;;;;20.45;16.92;;;;;;;;;;10025003;28;20488;-70
2023/11/02 15:22:10;;;;;;;25.23;16.88;;;;;;;;;;10024341;28;20116;-70
2023/11/02 15:27:03;;;;;;;22.15;16.80;;;;;;;;;;10024095;28;20045;-71
2023/11/02 15:31:56;;;;;;;21.95;15.40;;;;;;;;;;10021795;28;20045;-70
2023/11/02 15:36:48;;;;;;;28.35;20.10;;;;;;;;;;10028229;28;20465;-71
2023/11/02 15:41:40;;;;;;;28.13;21.95;;;;;;;;;;10027647;28;20060;-70
2023/11/02 15:46:32;;;;;;;35.20;25.30;;;;;;;;;;10023317;28;20044;-69
2023/11/02 15:51:24;;;;;;;27.17;18.83;;;;;;;;;;10024650;28;20054;-68
2023/11/02 15:56:16;;;;;;;34.90;21.92;;;;;;;;;;10022673;28;20050;-70
2023/11/02 16:01:13;;;;;;;27.25;21.45;;;;;;;;;;10023455;28;20050;-69
2023/11/02 16:06:06;;;;;;;23.25;19.58;;;;;;;;;;10004909;28;20412;-69
2023/11/02 16:10:59;;;;;;;15.63;13.18;;;;;;;;;;10027450;28;20387;-68
2023/11/02 16:15:52;;;;;;;32.72;28.42;;;;;;;;;;10023896;28;20480;-70
2023/11/02 16:20:44;;;;;;;20.13;12.52;;;;;;;;;;10022596;28;20136;-69
2023/11/02 16:25:38;;;;;;;16.98;11.13;;;;;;;;;;10017766;28;20062;-69
2023/11/02 16:30:30;;;;;;;14.50;9.85;;;;;;;;;;10022588;28;20046;-68
2023/11/02 16:35:23;;;;;;;3.22;3.00;;;;;;;;;;10021961;28;20057;-70
2023/11/02 16:40:22;;;;;;;16.90;10.82;;;;;;;;;;10013835;28;20072;-70
2023/11/02 16:45:14;;;;;;;10.60;7.90;;;;;;;;;;10024740;28;20076;-69
2023/11/02 16:50:08;;;;;;;14.00;11.38;;;;;;;;;;10035044;28;20049;-69
2023/11/02 16:54:59;;;;;;;8.27;2.22;;;;;;;;;;10029253;28;20373;-70
2023/11/02 16:59:51;;;;;;;3.22;1.60;;;;;;;;;;10024544;28;20544;-70
2023/11/02 17:04:43;;;;;;;3.08;1.73;;;;;;;;;;10023862;28;20042;-71
2023/11/02 17:09:35;;;;;;;1.75;1.40;;;;;;;;;;10019816;28;20053;-70
2023/11/02 17:14:27;;;;;;;2.85;1.63;;;;;;;;;;10019377;28;20106;-69
2023/11/02 17:19:19;;;;;;;5.25;3.88;;;;;;;;;;10018295;28;20046;-71
2023/11/02 17:24:11;;;;;;;8.73;7.88;;;;;;;;;;10020360;28;20488;-70
2023/11/02 17:29:02;;;;;;;12.52;11.20;;;;;;;;;;10020648;28;20148;-71
2023/11/02 17:33:54;;;;;;;6.97;6.38;;;;;;;;;;10020349;28;20087;-69
2023/11/02 17:38:46;;;;;;;4.25;3.03;;;;;;;;;;10020354;28;20081;-71
2023/11/02 17:43:40;;;;;;;1.90;1.40;;;;;;;;;;10021988;28;20042;-71
2023/11/02 17:48:32;;;;;;;1.50;1.40;;;;;;;;;;10018895;28;20092;-71
2023/11/02 17:53:24;;;;;;;1.80;1.48;;;;;;;;;;10018950;28;20464;-73
2023/11/02 17:58:16;;;;;;;1.08;0.90;;;;;;;;;;10020611;28;20351;-73
2023/11/02 18:03:08;;;;;;;3.00;0.90;;;;;;;;;;10012725;28;20539;-72
2023/11/02 18:08:02;;;;;;;7.03;6.10;;;;;;;;;;10023546;28;20046;-72
2023/11/02 18:12:54;;;;;;;12.88;11.63;;;;;;;;;;10025665;28;20125;-73
2023/11/02 18:17:46;;;;;;;14.45;11.55;;;;;;;;;;10026592;28;20085;-71
2023/11/02 18:22:39;;;;;;;32.70;18.35;;;;;;;;;;10027897;28;20045;-69
2023/11/02 18:27:31;;;;;;;129.02;123.35;;;;;;;;;;10026248;28;20053;-67
2023/11/02 18:32:23;;;;;;;153.80;146.35;;;;;;;;;;10027752;28;20192;-67
2023/11/02 18:37:15;;;;;;;132.50;126.40;;;;;;;;;;10027187;28;20042;-70
2023/11/02 18:42:08;;;;;;;204.82;194.13;;;;;;;;;;10026105;28;20481;-66
2023/11/02 18:47:06;;;;;;;245.73;232.85;;;;;;;;;;10018183;28;20044;-68
2023/11/02 18:51:58;;;;;;;210.13;199.77;;;;;;;;;;10025459;28;20592;-70
2023/11/02 18:56:52;;;;;;;158.23;150.73;;;;;;;;;;10016500;28;20053;-68
2023/11/02 19:01:44;;;;;;;124.97;119.28;;;;;;;;;;10026877;28;20038;-69
2023/11/02 19:06:37;;;;;;;108.18;103.32;;;;;;;;;;10025753;28;20592;-69
2023/11/02 19:11:29;;;;;;;88.35;84.43;;;;;;;;;;10024457;28;20042;-68
2023/11/02 19:16:21;;;;;;;74.90;71.53;;;;;;;;;;10024402;28;20125;-69
2023/11/02 19:21:14;;;;;;;66.68;63.78;;;;;;;;;;10023173;28;20046;-69
2023/11/02 19:26:08;;;;;;;62.15;59.45;;;;;;;;;;10025238;28;20042;-70
2023/11/02 19:31:00;;;;;;;65.43;62.58;;;;;;;;;;10024172;28;20046;-69
2023/11/02 19:35:52;;;;;;;56.85;54.40;;;;;;;;;;10024618;28;20050;-69
2023/11/02 19:40:44;;;;;;;77.05;73.53;;;;;;;;;;10022645;28;20046;-69
2023/11/02 19:45:36;;;;;;;77.13;73.75;;;;;;;;;;10016359;28;20057;-69
2023/11/02 19:50:28;;;;;;;75.07;71.80;;;;;;;;;;10021620;28;20527;-69
2023/11/02 19:55:20;;;;;;;88.80;84.88;;;;;;;;;;10019914;28;20046;-71
2023/11/02 20:00:13;;;;;;;89.93;85.95;;;;;;;;;;10023917;28;20045;-69
2023/11/02 20:05:06;;;;;;;68.43;65.40;;;;;;;;;;10023452;28;20048;-72
2023/11/02 20:09:58;;;;;;;72.75;69.47;;;;;;;;;;10024810;28;20041;-72
2023/11/02 20:14:50;;;;;;;107.50;102.65;;;;;;;;;;10022048;28;20045;-72
2023/11/02 20:19:42;;;;;;;88.35;84.40;;;;;;;;;;10023290;28;20038;-72
2023/11/02 20:24:34;;;;;;;105.25;100.60;;;;;;;;;;10022888;28;20073;-72
2023/11/02 20:29:26;;;;;;;87.25;83.38;;;;;;;;;;10021424;28;20081;-73
2023/11/02 20:34:17;;;;;;;86.97;83.05;;;;;;;;;;10025731;28;20050;-73
2023/11/02 20:39:11;;;;;;;111.72;106.75;;;;;;;;;;10024598;28;20081;-73
2023/11/02 20:44:03;;;;;;;112.90;107.80;;;;;;;;;;10024295;28;20477;-73
2023/11/02 20:48:55;;;;;;;99.80;95.30;;;;;;;;;;10020015;28;20052;-70
2023/11/02 20:53:47;;;;;;;111.15;106.13;;;;;;;;;;10022231;28;20081;-72
2023/11/02 20:58:39;;;;;;;10.63;9.43;;;;;;;;;;10039884;28;20168;-69
2023/11/02 21:03:32;;;;;;;2.38;1.92;;;;;;;;;;10060061;28;20049;-70
2023/11/02 21:08:25;;;;;;;1.35;1.20;;;;;;;;;;10064210;28;20053;-70
2023/11/02 21:13:17;;;;;;;4.13;3.03;;;;;;;;;;10064304;28;20332;-69
2023/11/02 21:18:10;;;;;;;2.47;1.50;;;;;;;;;;10065262;28;20128;-69
2023/11/02 21:23:04;;;;;;;1.35;1.20;;;;;;;;;;10065068;28;20045;-70
2023/11/02 21:27:56;;;;;;;2.00;1.33;;;;;;;;;;10065430;28;20148;-69
2023/11/02 21:32:48;;;;;;;1.15;1.13;;;;;;;;;;10060852;28;20490;-70
2023/11/02 21:37:40;;;;;;;1.02;0.90;;;;;;;;;;10061223;28;20049;-72
2023/11/02 21:42:32;;;;;;;1.33;1.10;;;;;;;;;;10062798;28;20049;-71
2023/11/02 21:47:24;;;;;;;1.23;1.08;;;;;;;;;;10071093;28;20527;-71
2023/11/02 21:52:16;;;;;;;3.90;3.40;;;;;;;;;;10071062;28;20052;-72
2023/11/02 21:57:08;;;;;;;1.13;1.10;;;;;;;;;;10070495;28;20049;-70
2023/11/02 22:02:00;;;;;;;3.35;1.98;;;;;;;;;;10071745;28;20041;-71
2023/11/02 22:06:52;;;;;;;28.50;19.92;;;;;;;;;;10072222;28;20049;-71
2023/11/02 22:11:44;;;;;;;7.55;5.82;;;;;;;;;;10072069;28;20460;-71
2023/11/02 22:16:37;;;;;;;2.92;2.55;;;;;;;;;;10068189;28;20049;-71
2023/11/02 22:21:29;;;;;;;2.53;2.33;;;;;;;;;;10069659;28;20046;-71
2023/11/02 22:26:22;;;;;;;1.30;1.20;;;;;;;;;;10070733;28;20464;-71
2023/11/02 22:31:15;;;;;;;7.47;6.88;;;;;;;;;;10070461;28;20103;-71
2023/11/02 22:36:11;;;;;;;6.80;5.80;;;;;;;;;;10070839;28;20049;-70
2023/11/02 22:41:03;;;;;;;12.55;11.05;;;;;;;;;;10070564;28;20053;-71
2023/11/02 22:46:01;;;;;;;20.77;18.83;;;;;;;;;;10069990;28;20049;-71
2023/11/02 22:50:53;;;;;;;25.73;21.13;;;;;;;;;;10057175;28;20472;-69
2023/11/02 22:55:45;;;;;;;26.23;21.85;;;;;;;;;;10070076;28;20387;-71
2023/11/02 23:00:39;;;;;;;41.60;34.53;;;;;;;;;;10057226;28;20423;-71
2023/11/02 23:05:31;;;;;;;27.92;25.10;;;;;;;;;;10069649;28;20053;-70
2023/11/02 23:10:23;;;;;;;21.60;19.75;;;;;;;;;;10069845;28;20499;-71
2023/11/02 23:15:14;;;;;;;8.32;7.57;;;;;;;;;;10069260;28;20045;-71
2023/11/02 23:20:09;;;;;;;18.15;16.55;;;;;;;;;;10065827;28;20103;-70
2023/11/02 23:25:00;;;;;;;9.35;8.55;;;;;;;;;;10065026;28;20044;-70
2023/11/02 23:29:52;;;;;;;9.48;8.43;;;;;;;;;;10062529;28;20044;-70
2023/11/02 23:34:45;;;;;;;10.65;9.55;;;;;;;;;;10063348;28;20103;-70
2023/11/02 23:39:38;;;;;;;13.55;10.13;;;;;;;;;;10062760;28;20045;-71
2023/11/02 23:44:30;;;;;;;9.13;7.80;;;;;;;;;;10063842;28;20049;-69
2023/11/02 23:49:22;;;;;;;7.80;7.00;;;;;;;;;;10063441;28;20490;-71
2023/11/02 23:54:17;;;;;;;22.75;20.05;;;;;;;;;;10064317;28;20041;-70
2023/11/02 23:59:10;;;;;;;12.02;9.25;;;;;;;;;;10062598;28;20041;-69
